sensor_id;sensor_type;location;lat;lon;timestamp;P1;durP1;ratioP1;P2;durP2;ratioP2
18716;SDS011;9487;50.892;6.906;2023-06-14T00:00:00;7.97;;;7.17;;
18716;SDS011;9487;50.892;6.906;2023-06-14T00:02:29;7.33;;;6.70;;
18716;SDS011;9487;50.892;6.906;2023-06-14T00:04:56;7.83;;;7.03;;
18716;SDS011;9487;50.892;6.906;2023-06-14T00:07:34;8.40;;;6.97;;
18716;SDS011;9487;50.892;6.906;2023-06-14T00:10:03;7.83;;;7.13;;
18716;SDS011;9487;50.892;6.906;2023-06-14T00:12:31;7.50;;;6.80;;
18716;SDS011;9487;50.892;6.906;2023-06-14T00:15:00;7.87;;;6.80;;
18716;SDS011;9487;50.892;6.906;2023-06-14T00:17:27;7.57;;;6.90;;
18716;SDS011;9487;50.892;6.906;2023-06-14T00:19:55;8.10;;;7.30;;
18716;SDS011;9487;50.892;6.906;2023-06-14T00:22:23;7.90;;;7.10;;
18716;SDS011;9487;50.892;6.906;2023-06-14T00:24:55;7.50;;;6.80;;
18716;SDS011;9487;50.892;6.906;2023-06-14T00:27:22;7.53;;;6.93;;
18716;SDS011;9487;50.892;6.906;2023-06-14T00:29:49;7.60;;;6.87;;
18716;SDS011;9487;50.892;6.906;2023-06-14T00:32:17;8.87;;;7.23;;
18716;SDS011;9487;50.892;6.906;2023-06-14T00:34:49;6.93;;;6.30;;
18716;SDS011;9487;50.892;6.906;2023-06-14T00:37:16;7.13;;;6.53;;
18716;SDS011;9487;50.892;6.906;2023-06-14T00:39:43;6.93;;;6.33;;
18716;SDS011;9487;50.892;6.906;2023-06-14T00:42:11;9.10;;;6.93;;
18716;SDS011;9487;50.892;6.906;2023-06-14T00:44:49;7.10;;;6.50;;
18716;SDS011;9487;50.892;6.906;2023-06-14T00:47:16;7.20;;;6.57;;
18716;SDS011;9487;50.892;6.906;2023-06-14T00:49:44;7.53;;;6.83;;
18716;SDS011;9487;50.892;6.906;2023-06-14T00:52:12;7.40;;;6.80;;
18716;SDS011;9487;50.892;6.906;2023-06-14T00:54:40;8.07;;;7.27;;
18716;SDS011;9487;50.892;6.906;2023-06-14T00:57:08;7.27;;;6.57;;
18716;SDS011;9487;50.892;6.906;2023-06-14T00:59:40;7.20;;;6.60;;
18716;SDS011;9487;50.892;6.906;2023-06-14T01:02:09;7.73;;;6.93;;
18716;SDS011;9487;50.892;6.906;2023-06-14T01:04:36;7.67;;;7.07;;
18716;SDS011;9487;50.892;6.906;2023-06-14T01:07:07;7.33;;;6.63;;
18716;SDS011;9487;50.892;6.906;2023-06-14T01:09:43;7.33;;;6.73;;
18716;SDS011;9487;50.892;6.906;2023-06-14T01:12:21;8.43;;;7.63;;
18716;SDS011;9487;50.892;6.906;2023-06-14T01:15:06;7.30;;;6.70;;
18716;SDS011;9487;50.892;6.906;2023-06-14T01:17:34;7.50;;;6.80;;
18716;SDS011;9487;50.892;6.906;2023-06-14T01:20:09;7.93;;;7.20;;
18716;SDS011;9487;50.892;6.906;2023-06-14T01:22:45;7.20;;;6.60;;
18716;SDS011;9487;50.892;6.906;2023-06-14T01:25:16;7.60;;;7.00;;
18716;SDS011;9487;50.892;6.906;2023-06-14T01:27:45;8.80;;;7.73;;
18716;SDS011;9487;50.892;6.906;2023-06-14T01:30:13;8.47;;;7.67;;
18716;SDS011;9487;50.892;6.906;2023-06-14T01:32:41;8.13;;;7.43;;
18716;SDS011;9487;50.892;6.906;2023-06-14T01:35:09;8.03;;;7.27;;
18716;SDS011;9487;50.892;6.906;2023-06-14T01:37:36;8.57;;;7.87;;
18716;SDS011;9487;50.892;6.906;2023-06-14T01:40:06;7.60;;;6.90;;
18716;SDS011;9487;50.892;6.906;2023-06-14T01:42:34;8.43;;;7.57;;
18716;SDS011;9487;50.892;6.906;2023-06-14T01:45:04;8.23;;;7.53;;
18716;SDS011;9487;50.892;6.906;2023-06-14T01:47:36;8.50;;;7.70;;
18716;SDS011;9487;50.892;6.906;2023-06-14T01:50:04;8.07;;;7.33;;
18716;SDS011;9487;50.892;6.906;2023-06-14T01:52:32;7.93;;;7.17;;
18716;SDS011;9487;50.892;6.906;2023-06-14T01:54:59;8.17;;;7.47;;
18716;SDS011;9487;50.892;6.906;2023-06-14T01:57:29;8.93;;;8.13;;
18716;SDS011;9487;50.892;6.906;2023-06-14T01:59:56;9.27;;;8.33;;
18716;SDS011;9487;50.892;6.906;2023-06-14T02:02:23;7.70;;;7.00;;
18716;SDS011;9487;50.892;6.906;2023-06-14T02:04:50;8.93;;;8.17;;
18716;SDS011;9487;50.892;6.906;2023-06-14T02:07:22;8.80;;;7.90;;
18716;SDS011;9487;50.892;6.906;2023-06-14T02:09:49;8.00;;;7.30;;
18716;SDS011;9487;50.892;6.906;2023-06-14T02:12:17;8.37;;;7.60;;
18716;SDS011;9487;50.892;6.906;2023-06-14T02:14:46;7.80;;;7.00;;
18716;SDS011;9487;50.892;6.906;2023-06-14T02:17:13;7.47;;;6.87;;
18716;SDS011;9487;50.892;6.906;2023-06-14T02:19:41;8.17;;;7.40;;
18716;SDS011;9487;50.892;6.906;2023-06-14T02:22:08;9.03;;;7.47;;
18716;SDS011;9487;50.892;6.906;2023-06-14T02:24:35;7.83;;;7.23;;
18716;SDS011;9487;50.892;6.906;2023-06-14T02:27:03;9.10;;;6.97;;
18716;SDS011;9487;50.892;6.906;2023-06-14T02:29:31;8.20;;;7.50;;
18716;SDS011;9487;50.892;6.906;2023-06-14T02:32:00;8.60;;;7.70;;
18716;SDS011;9487;50.892;6.906;2023-06-14T02:34:27;8.27;;;7.57;;
18716;SDS011;9487;50.892;6.906;2023-06-14T02:36:54;8.27;;;7.47;;
18716;SDS011;9487;50.892;6.906;2023-06-14T02:39:23;8.50;;;7.80;;
18716;SDS011;9487;50.892;6.906;2023-06-14T02:41:53;9.10;;;8.27;;
18716;SDS011;9487;50.892;6.906;2023-06-14T02:44:23;8.03;;;7.33;;
18716;SDS011;9487;50.892;6.906;2023-06-14T02:46:52;7.83;;;7.03;;
18716;SDS011;9487;50.892;6.906;2023-06-14T02:49:21;8.80;;;7.90;;
18716;SDS011;9487;50.892;6.906;2023-06-14T02:51:48;7.27;;;6.63;;
18716;SDS011;9487;50.892;6.906;2023-06-14T02:54:15;7.67;;;7.07;;
18716;SDS011;9487;50.892;6.906;2023-06-14T02:56:44;8.27;;;7.47;;
18716;SDS011;9487;50.892;6.906;2023-06-14T02:59:11;8.23;;;7.43;;
18716;SDS011;9487;50.892;6.906;2023-06-14T03:01:39;7.53;;;6.93;;
18716;SDS011;9487;50.892;6.906;2023-06-14T03:04:07;7.70;;;7.00;;
18716;SDS011;9487;50.892;6.906;2023-06-14T03:06:35;7.87;;;7.10;;
18716;SDS011;9487;50.892;6.906;2023-06-14T03:09:04;7.70;;;7.07;;
18716;SDS011;9487;50.892;6.906;2023-06-14T03:11:32;7.00;;;6.40;;
18716;SDS011;9487;50.892;6.906;2023-06-14T03:14:00;7.10;;;6.50;;
18716;SDS011;9487;50.892;6.906;2023-06-14T03:16:28;7.10;;;6.50;;
18716;SDS011;9487;50.892;6.906;2023-06-14T03:18:56;7.23;;;6.67;;
18716;SDS011;9487;50.892;6.906;2023-06-14T03:21:24;7.27;;;6.63;;
18716;SDS011;9487;50.892;6.906;2023-06-14T03:23:53;7.20;;;6.60;;
18716;SDS011;9487;50.892;6.906;2023-06-14T03:26:20;7.53;;;6.83;;
18716;SDS011;9487;50.892;6.906;2023-06-14T03:28:48;7.27;;;6.57;;
18716;SDS011;9487;50.892;6.906;2023-06-14T03:31:15;7.57;;;6.80;;
18716;SDS011;9487;50.892;6.906;2023-06-14T03:33:42;6.77;;;6.17;;
18716;SDS011;9487;50.892;6.906;2023-06-14T03:36:09;6.87;;;6.27;;
18716;SDS011;9487;50.892;6.906;2023-06-14T03:38:37;6.90;;;6.20;;
18716;SDS011;9487;50.892;6.906;2023-06-14T03:41:08;7.13;;;6.53;;
18716;SDS011;9487;50.892;6.906;2023-06-14T03:43:37;7.03;;;6.33;;
18716;SDS011;9487;50.892;6.906;2023-06-14T03:46:04;6.67;;;6.13;;
18716;SDS011;9487;50.892;6.906;2023-06-14T03:48:31;7.60;;;6.90;;
18716;SDS011;9487;50.892;6.906;2023-06-14T03:50:59;7.90;;;6.20;;
18716;SDS011;9487;50.892;6.906;2023-06-14T03:53:27;7.23;;;6.53;;
18716;SDS011;9487;50.892;6.906;2023-06-14T03:55:54;7.03;;;6.40;;
18716;SDS011;9487;50.892;6.906;2023-06-14T03:58:23;7.23;;;6.40;;
18716;SDS011;9487;50.892;6.906;2023-06-14T04:00:51;7.50;;;6.80;;
18716;SDS011;9487;50.892;6.906;2023-06-14T04:03:18;6.80;;;6.30;;
18716;SDS011;9487;50.892;6.906;2023-06-14T04:05:54;6.70;;;6.10;;
18716;SDS011;9487;50.892;6.906;2023-06-14T04:08:24;7.23;;;6.20;;
18716;SDS011;9487;50.892;6.906;2023-06-14T04:10:54;7.10;;;6.40;;
18716;SDS011;9487;50.892;6.906;2023-06-14T04:13:21;7.13;;;6.47;;
18716;SDS011;9487;50.892;6.906;2023-06-14T04:15:50;6.50;;;5.50;;
18716;SDS011;9487;50.892;6.906;2023-06-14T04:18:18;6.73;;;6.13;;
18716;SDS011;9487;50.892;6.906;2023-06-14T04:20:45;6.20;;;5.70;;
18716;SDS011;9487;50.892;6.906;2023-06-14T04:23:13;7.03;;;5.83;;
18716;SDS011;9487;50.892;6.906;2023-06-14T04:25:40;6.33;;;5.80;;
18716;SDS011;9487;50.892;6.906;2023-06-14T04:28:10;6.40;;;5.73;;
18716;SDS011;9487;50.892;6.906;2023-06-14T04:30:38;7.87;;;5.90;;
18716;SDS011;9487;50.892;6.906;2023-06-14T04:33:05;6.70;;;6.10;;
18716;SDS011;9487;50.892;6.906;2023-06-14T04:35:35;6.20;;;5.60;;
18716;SDS011;9487;50.892;6.906;2023-06-14T04:38:02;6.23;;;5.70;;
18716;SDS011;9487;50.892;6.906;2023-06-14T04:40:34;6.43;;;5.50;;
18716;SDS011;9487;50.892;6.906;2023-06-14T04:43:07;6.13;;;5.53;;
18716;SDS011;9487;50.892;6.906;2023-06-14T04:45:39;7.03;;;5.80;;
18716;SDS011;9487;50.892;6.906;2023-06-14T04:48:10;5.90;;;5.30;;
18716;SDS011;9487;50.892;6.906;2023-06-14T04:50:37;5.87;;;5.30;;
18716;SDS011;9487;50.892;6.906;2023-06-14T04:53:06;6.17;;;5.40;;
18716;SDS011;9487;50.892;6.906;2023-06-14T04:55:34;6.40;;;5.80;;
18716;SDS011;9487;50.892;6.906;2023-06-14T04:58:01;5.77;;;5.20;;
18716;SDS011;9487;50.892;6.906;2023-06-14T05:00:28;6.50;;;5.77;;
18716;SDS011;9487;50.892;6.906;2023-06-14T05:02:57;6.20;;;5.70;;
18716;SDS011;9487;50.892;6.906;2023-06-14T05:05:26;5.73;;;5.23;;
18716;SDS011;9487;50.892;6.906;2023-06-14T05:07:52;7.13;;;5.20;;
18716;SDS011;9487;50.892;6.906;2023-06-14T05:10:20;7.37;;;5.60;;
18716;SDS011;9487;50.892;6.906;2023-06-14T05:12:47;6.83;;;5.20;;
18716;SDS011;9487;50.892;6.906;2023-06-14T05:15:14;7.93;;;5.40;;
18716;SDS011;9487;50.892;6.906;2023-06-14T05:17:41;6.23;;;5.53;;
18716;SDS011;9487;50.892;6.906;2023-06-14T05:20:10;5.60;;;5.10;;
18716;SDS011;9487;50.892;6.906;2023-06-14T05:22:37;5.00;;;4.60;;
18716;SDS011;9487;50.892;6.906;2023-06-14T05:25:04;5.00;;;4.60;;
18716;SDS011;9487;50.892;6.906;2023-06-14T05:27:32;5.60;;;5.10;;
18716;SDS011;9487;50.892;6.906;2023-06-14T05:30:09;5.53;;;4.83;;
18716;SDS011;9487;50.892;6.906;2023-06-14T05:32:36;5.77;;;5.13;;
18716;SDS011;9487;50.892;6.906;2023-06-14T05:35:04;5.90;;;5.30;;
18716;SDS011;9487;50.892;6.906;2023-06-14T05:37:34;5.80;;;5.27;;
18716;SDS011;9487;50.892;6.906;2023-06-14T05:40:01;5.20;;;4.80;;
18716;SDS011;9487;50.892;6.906;2023-06-14T05:42:30;7.00;;;5.40;;
18716;SDS011;9487;50.892;6.906;2023-06-14T05:44:57;5.27;;;4.77;;
18716;SDS011;9487;50.892;6.906;2023-06-14T05:47:24;4.87;;;4.47;;
18716;SDS011;9487;50.892;6.906;2023-06-14T05:49:52;6.30;;;4.60;;
18716;SDS011;9487;50.892;6.906;2023-06-14T05:52:20;4.80;;;4.37;;
18716;SDS011;9487;50.892;6.906;2023-06-14T05:54:49;5.53;;;5.07;;
18716;SDS011;9487;50.892;6.906;2023-06-14T05:57:16;6.13;;;4.47;;
18716;SDS011;9487;50.892;6.906;2023-06-14T05:59:42;5.30;;;4.67;;
18716;SDS011;9487;50.892;6.906;2023-06-14T06:02:10;4.90;;;4.30;;
18716;SDS011;9487;50.892;6.906;2023-06-14T06:04:37;5.90;;;4.80;;
18716;SDS011;9487;50.892;6.906;2023-06-14T06:07:04;5.40;;;4.50;;
18716;SDS011;9487;50.892;6.906;2023-06-14T06:09:33;4.27;;;3.90;;
18716;SDS011;9487;50.892;6.906;2023-06-14T06:12:01;5.27;;;4.50;;
18716;SDS011;9487;50.892;6.906;2023-06-14T06:14:28;4.97;;;4.57;;
18716;SDS011;9487;50.892;6.906;2023-06-14T06:16:56;6.37;;;4.23;;
18716;SDS011;9487;50.892;6.906;2023-06-14T06:19:23;5.10;;;4.30;;
18716;SDS011;9487;50.892;6.906;2023-06-14T06:21:50;4.90;;;4.40;;
18716;SDS011;9487;50.892;6.906;2023-06-14T06:24:18;4.93;;;4.40;;
18716;SDS011;9487;50.892;6.906;2023-06-14T06:26:45;6.37;;;3.90;;
18716;SDS011;9487;50.892;6.906;2023-06-14T06:29:14;6.67;;;4.17;;
18716;SDS011;9487;50.892;6.906;2023-06-14T06:31:41;5.33;;;4.27;;
18716;SDS011;9487;50.892;6.906;2023-06-14T06:34:08;4.70;;;4.20;;
18716;SDS011;9487;50.892;6.906;2023-06-14T06:36:35;7.30;;;4.33;;
18716;SDS011;9487;50.892;6.906;2023-06-14T06:39:02;4.57;;;4.10;;
18716;SDS011;9487;50.892;6.906;2023-06-14T06:41:35;4.47;;;3.87;;
18716;SDS011;9487;50.892;6.906;2023-06-14T06:44:03;7.00;;;4.80;;
18716;SDS011;9487;50.892;6.906;2023-06-14T06:46:31;4.50;;;4.10;;
18716;SDS011;9487;50.892;6.906;2023-06-14T06:49:00;4.90;;;4.17;;
18716;SDS011;9487;50.892;6.906;2023-06-14T06:51:27;7.20;;;5.07;;
18716;SDS011;9487;50.892;6.906;2023-06-14T06:53:54;6.40;;;4.73;;
18716;SDS011;9487;50.892;6.906;2023-06-14T06:56:21;5.17;;;4.57;;
18716;SDS011;9487;50.892;6.906;2023-06-14T06:58:49;4.27;;;3.87;;
18716;SDS011;9487;50.892;6.906;2023-06-14T07:01:16;4.33;;;3.73;;
18716;SDS011;9487;50.892;6.906;2023-06-14T07:03:46;4.73;;;4.00;;
18716;SDS011;9487;50.892;6.906;2023-06-14T07:06:13;5.27;;;4.17;;
18716;SDS011;9487;50.892;6.906;2023-06-14T07:08:42;3.70;;;3.40;;
18716;SDS011;9487;50.892;6.906;2023-06-14T07:11:09;6.00;;;4.20;;
18716;SDS011;9487;50.892;6.906;2023-06-14T07:13:36;5.13;;;4.03;;
18716;SDS011;9487;50.892;6.906;2023-06-14T07:16:04;3.67;;;3.20;;
18716;SDS011;9487;50.892;6.906;2023-06-14T07:18:31;5.07;;;3.80;;
18716;SDS011;9487;50.892;6.906;2023-06-14T07:20:59;5.28;;;4.57;;
18716;SDS011;9487;50.892;6.906;2023-06-14T07:23:26;4.57;;;3.60;;
18716;SDS011;9487;50.892;6.906;2023-06-14T07:25:53;3.97;;;3.37;;
18716;SDS011;9487;50.892;6.906;2023-06-14T07:28:20;4.80;;;3.30;;
18716;SDS011;9487;50.892;6.906;2023-06-14T07:30:47;3.90;;;3.60;;
18716;SDS011;9487;50.892;6.906;2023-06-14T07:33:15;7.43;;;3.63;;
18716;SDS011;9487;50.892;6.906;2023-06-14T07:35:42;4.63;;;3.50;;
18716;SDS011;9487;50.892;6.906;2023-06-14T07:38:11;3.67;;;3.33;;
18716;SDS011;9487;50.892;6.906;2023-06-14T07:40:38;5.40;;;3.38;;
18716;SDS011;9487;50.892;6.906;2023-06-14T07:43:05;3.80;;;3.40;;
18716;SDS011;9487;50.892;6.906;2023-06-14T07:45:32;4.38;;;3.40;;
18716;SDS011;9487;50.892;6.906;2023-06-14T07:47:59;3.30;;;3.00;;
18716;SDS011;9487;50.892;6.906;2023-06-14T07:50:26;4.78;;;3.20;;
18716;SDS011;9487;50.892;6.906;2023-06-14T07:52:53;6.57;;;3.63;;
18716;SDS011;9487;50.892;6.906;2023-06-14T07:55:22;3.63;;;3.33;;
18716;SDS011;9487;50.892;6.906;2023-06-14T07:57:50;3.38;;;3.08;;
18716;SDS011;9487;50.892;6.906;2023-06-14T08:00:18;4.32;;;3.25;;
18716;SDS011;9487;50.892;6.906;2023-06-14T08:02:45;3.50;;;3.20;;
18716;SDS011;9487;50.892;6.906;2023-06-14T08:05:13;3.35;;;3.00;;
18716;SDS011;9487;50.892;6.906;2023-06-14T08:07:39;5.50;;;3.05;;
18716;SDS011;9487;50.892;6.906;2023-06-14T08:10:07;3.88;;;2.25;;
18716;SDS011;9487;50.892;6.906;2023-06-14T08:12:36;3.00;;;2.70;;
18716;SDS011;9487;50.892;6.906;2023-06-14T08:15:03;2.40;;;2.20;;
18716;SDS011;9487;50.892;6.906;2023-06-14T08:17:31;3.50;;;2.47;;
18716;SDS011;9487;50.892;6.906;2023-06-14T08:19:58;2.87;;;2.20;;
18716;SDS011;9487;50.892;6.906;2023-06-14T08:22:25;3.00;;;2.30;;
18716;SDS011;9487;50.892;6.906;2023-06-14T08:24:56;3.47;;;2.00;;
18716;SDS011;9487;50.892;6.906;2023-06-14T08:27:23;3.67;;;2.00;;
18716;SDS011;9487;50.892;6.906;2023-06-14T08:29:52;2.30;;;2.00;;
18716;SDS011;9487;50.892;6.906;2023-06-14T08:32:19;2.83;;;2.10;;
18716;SDS011;9487;50.892;6.906;2023-06-14T08:34:46;3.08;;;2.17;;
18716;SDS011;9487;50.892;6.906;2023-06-14T08:37:14;2.60;;;1.90;;
18716;SDS011;9487;50.892;6.906;2023-06-14T08:39:41;2.47;;;1.80;;
18716;SDS011;9487;50.892;6.906;2023-06-14T08:42:09;4.03;;;2.08;;
18716;SDS011;9487;50.892;6.906;2023-06-14T08:44:38;2.25;;;1.90;;
18716;SDS011;9487;50.892;6.906;2023-06-14T08:47:07;2.47;;;2.22;;
18716;SDS011;9487;50.892;6.906;2023-06-14T08:49:35;2.20;;;2.00;;
18716;SDS011;9487;50.892;6.906;2023-06-14T08:52:06;3.78;;;2.08;;
18716;SDS011;9487;50.892;6.906;2023-06-14T08:54:35;4.20;;;2.08;;
18716;SDS011;9487;50.892;6.906;2023-06-14T08:57:08;3.22;;;1.90;;
18716;SDS011;9487;50.892;6.906;2023-06-14T08:59:39;2.85;;;1.90;;
18716;SDS011;9487;50.892;6.906;2023-06-14T09:02:15;2.22;;;2.03;;
18716;SDS011;9487;50.892;6.906;2023-06-14T09:04:44;2.75;;;1.90;;
18716;SDS011;9487;50.892;6.906;2023-06-14T09:07:14;3.28;;;2.30;;
18716;SDS011;9487;50.892;6.906;2023-06-14T09:09:44;2.72;;;2.00;;
18716;SDS011;9487;50.892;6.906;2023-06-14T09:12:11;2.40;;;2.05;;
18716;SDS011;9487;50.892;6.906;2023-06-14T09:14:38;3.78;;;2.00;;
18716;SDS011;9487;50.892;6.906;2023-06-14T09:17:07;2.13;;;1.95;;
18716;SDS011;9487;50.892;6.906;2023-06-14T09:19:36;2.77;;;2.13;;
18716;SDS011;9487;50.892;6.906;2023-06-14T09:22:03;3.20;;;2.40;;
18716;SDS011;9487;50.892;6.906;2023-06-14T09:24:31;5.73;;;2.20;;
18716;SDS011;9487;50.892;6.906;2023-06-14T09:27:00;2.45;;;1.92;;
18716;SDS011;9487;50.892;6.906;2023-06-14T09:29:29;3.00;;;1.73;;
18716;SDS011;9487;50.892;6.906;2023-06-14T09:31:57;2.85;;;2.00;;
18716;SDS011;9487;50.892;6.906;2023-06-14T09:34:26;3.10;;;1.90;;
18716;SDS011;9487;50.892;6.906;2023-06-14T09:36:55;2.03;;;1.90;;
18716;SDS011;9487;50.892;6.906;2023-06-14T09:39:22;3.15;;;2.08;;
18716;SDS011;9487;50.892;6.906;2023-06-14T09:41:50;2.35;;;2.15;;
18716;SDS011;9487;50.892;6.906;2023-06-14T09:44:20;3.10;;;2.22;;
18716;SDS011;9487;50.892;6.906;2023-06-14T09:46:50;2.28;;;2.08;;
18716;SDS011;9487;50.892;6.906;2023-06-14T09:49:17;2.15;;;1.95;;
18716;SDS011;9487;50.892;6.906;2023-06-14T09:51:45;4.50;;;2.47;;
18716;SDS011;9487;50.892;6.906;2023-06-14T09:54:19;2.20;;;2.00;;
18716;SDS011;9487;50.892;6.906;2023-06-14T09:56:48;4.43;;;2.08;;
18716;SDS011;9487;50.892;6.906;2023-06-14T09:59:19;2.22;;;1.92;;
18716;SDS011;9487;50.892;6.906;2023-06-14T10:01:51;2.35;;;2.15;;
18716;SDS011;9487;50.892;6.906;2023-06-14T10:04:23;2.53;;;2.33;;
18716;SDS011;9487;50.892;6.906;2023-06-14T10:06:53;2.63;;;2.00;;
18716;SDS011;9487;50.892;6.906;2023-06-14T10:09:22;4.38;;;2.17;;
18716;SDS011;9487;50.892;6.906;2023-06-14T10:11:49;2.72;;;2.30;;
18716;SDS011;9487;50.892;6.906;2023-06-14T10:14:18;2.13;;;1.92;;
18716;SDS011;9487;50.892;6.906;2023-06-14T10:16:47;3.45;;;2.30;;
18716;SDS011;9487;50.892;6.906;2023-06-14T10:19:24;3.40;;;2.20;;
18716;SDS011;9487;50.892;6.906;2023-06-14T10:22:01;2.50;;;2.30;;
18716;SDS011;9487;50.892;6.906;2023-06-14T10:24:38;4.22;;;2.28;;
18716;SDS011;9487;50.892;6.906;2023-06-14T10:27:07;3.33;;;2.33;;
18716;SDS011;9487;50.892;6.906;2023-06-14T10:29:40;3.53;;;2.30;;
18716;SDS011;9487;50.892;6.906;2023-06-14T10:32:33;3.10;;;2.57;;
18716;SDS011;9487;50.892;6.906;2023-06-14T10:35:01;3.47;;;2.23;;
18716;SDS011;9487;50.892;6.906;2023-06-14T10:37:31;2.33;;;2.13;;
18716;SDS011;9487;50.892;6.906;2023-06-14T10:39:59;2.73;;;2.17;;
18716;SDS011;9487;50.892;6.906;2023-06-14T10:42:31;3.07;;;2.73;;
18716;SDS011;9487;50.892;6.906;2023-06-14T10:44:59;2.33;;;2.13;;
18716;SDS011;9487;50.892;6.906;2023-06-14T10:47:28;2.30;;;2.07;;
18716;SDS011;9487;50.892;6.906;2023-06-14T10:50:03;2.27;;;1.93;;
18716;SDS011;9487;50.892;6.906;2023-06-14T10:52:33;2.15;;;1.90;;
18716;SDS011;9487;50.892;6.906;2023-06-14T10:55:08;3.13;;;2.13;;
18716;SDS011;9487;50.892;6.906;2023-06-14T10:57:38;3.43;;;2.30;;
18716;SDS011;9487;50.892;6.906;2023-06-14T11:00:06;2.30;;;2.10;;
18716;SDS011;9487;50.892;6.906;2023-06-14T11:02:46;2.23;;;2.00;;
18716;SDS011;9487;50.892;6.906;2023-06-14T11:05:40;3.60;;;2.10;;
18716;SDS011;9487;50.892;6.906;2023-06-14T11:08:18;2.45;;;2.05;;
18716;SDS011;9487;50.892;6.906;2023-06-14T11:11:02;3.47;;;2.45;;
18716;SDS011;9487;50.892;6.906;2023-06-14T11:13:33;2.28;;;2.08;;
18716;SDS011;9487;50.892;6.906;2023-06-14T11:16:02;3.33;;;2.17;;
18716;SDS011;9487;50.892;6.906;2023-06-14T11:18:36;2.83;;;2.00;;
18716;SDS011;9487;50.892;6.906;2023-06-14T11:21:04;2.75;;;2.55;;
18716;SDS011;9487;50.892;6.906;2023-06-14T11:23:30;3.45;;;2.22;;
18716;SDS011;9487;50.892;6.906;2023-06-14T11:25:57;2.55;;;2.22;;
18716;SDS011;9487;50.892;6.906;2023-06-14T11:28:26;2.55;;;2.35;;
18716;SDS011;9487;50.892;6.906;2023-06-14T11:31:05;3.33;;;2.33;;
18716;SDS011;9487;50.892;6.906;2023-06-14T11:33:32;2.63;;;1.90;;
18716;SDS011;9487;50.892;6.906;2023-06-14T11:36:01;2.60;;;2.40;;
18716;SDS011;9487;50.892;6.906;2023-06-14T11:38:34;3.08;;;2.30;;
18716;SDS011;9487;50.892;6.906;2023-06-14T11:41:03;2.83;;;2.63;;
18716;SDS011;9487;50.892;6.906;2023-06-14T11:43:32;2.50;;;2.30;;
18716;SDS011;9487;50.892;6.906;2023-06-14T11:46:00;2.38;;;2.20;;
18716;SDS011;9487;50.892;6.906;2023-06-14T11:48:35;2.80;;;2.10;;
18716;SDS011;9487;50.892;6.906;2023-06-14T11:51:03;2.60;;;2.40;;
18716;SDS011;9487;50.892;6.906;2023-06-14T11:53:29;2.65;;;2.15;;
18716;SDS011;9487;50.892;6.906;2023-06-14T11:55:57;2.67;;;2.47;;
18716;SDS011;9487;50.892;6.906;2023-06-14T11:58:24;2.45;;;2.20;;
18716;SDS011;9487;50.892;6.906;2023-06-14T12:00:54;3.78;;;2.42;;
18716;SDS011;9487;50.892;6.906;2023-06-14T12:03:24;2.70;;;2.50;;
18716;SDS011;9487;50.892;6.906;2023-06-14T12:06:04;3.55;;;2.70;;
18716;SDS011;9487;50.892;6.906;2023-06-14T12:08:35;4.40;;;2.38;;
18716;SDS011;9487;50.892;6.906;2023-06-14T12:11:06;3.83;;;2.40;;
18716;SDS011;9487;50.892;6.906;2023-06-14T12:13:37;3.80;;;2.05;;
18716;SDS011;9487;50.892;6.906;2023-06-14T12:16:07;3.17;;;2.22;;
18716;SDS011;9487;50.892;6.906;2023-06-14T12:18:36;2.78;;;2.15;;
18716;SDS011;9487;50.892;6.906;2023-06-14T12:21:05;3.15;;;2.13;;
18716;SDS011;9487;50.892;6.906;2023-06-14T12:23:42;2.47;;;2.28;;
18716;SDS011;9487;50.892;6.906;2023-06-14T12:26:12;3.13;;;2.10;;
18716;SDS011;9487;50.892;6.906;2023-06-14T12:28:41;3.17;;;2.22;;
18716;SDS011;9487;50.892;6.906;2023-06-14T12:31:10;2.47;;;2.28;;
18716;SDS011;9487;50.892;6.906;2023-06-14T12:33:39;2.88;;;2.00;;
18716;SDS011;9487;50.892;6.906;2023-06-14T12:36:07;1.67;;;1.58;;
18716;SDS011;9487;50.892;6.906;2023-06-14T12:38:35;4.50;;;2.35;;
18716;SDS011;9487;50.892;6.906;2023-06-14T12:41:02;3.97;;;2.22;;
18716;SDS011;9487;50.892;6.906;2023-06-14T12:43:31;3.10;;;2.30;;
18716;SDS011;9487;50.892;6.906;2023-06-14T12:46:00;2.38;;;2.17;;
18716;SDS011;9487;50.892;6.906;2023-06-14T12:48:29;2.97;;;2.28;;
18716;SDS011;9487;50.892;6.906;2023-06-14T12:50:56;2.22;;;2.03;;
18716;SDS011;9487;50.892;6.906;2023-06-14T12:53:23;2.13;;;1.90;;
18716;SDS011;9487;50.892;6.906;2023-06-14T12:55:50;3.45;;;2.05;;
18716;SDS011;9487;50.892;6.906;2023-06-14T12:58:17;3.10;;;2.03;;
18716;SDS011;9487;50.892;6.906;2023-06-14T13:00:45;2.42;;;1.75;;
18716;SDS011;9487;50.892;6.906;2023-06-14T13:03:12;5.95;;;1.90;;
18716;SDS011;9487;50.892;6.906;2023-06-14T13:05:44;2.65;;;2.45;;
18716;SDS011;9487;50.892;6.906;2023-06-14T13:08:11;2.65;;;1.80;;
18716;SDS011;9487;50.892;6.906;2023-06-14T13:10:38;1.95;;;1.80;;
18716;SDS011;9487;50.892;6.906;2023-06-14T13:13:05;2.55;;;1.80;;
18716;SDS011;9487;50.892;6.906;2023-06-14T13:15:33;2.08;;;1.98;;
18716;SDS011;9487;50.892;6.906;2023-06-14T13:18:00;2.92;;;1.77;;
18716;SDS011;9487;50.892;6.906;2023-06-14T13:20:28;1.88;;;1.73;;
18716;SDS011;9487;50.892;6.906;2023-06-14T13:22:56;1.98;;;1.70;;
18716;SDS011;9487;50.892;6.906;2023-06-14T13:25:24;2.10;;;1.90;;
18716;SDS011;9487;50.892;6.906;2023-06-14T13:27:51;4.90;;;1.90;;
18716;SDS011;9487;50.892;6.906;2023-06-14T13:30:18;2.53;;;1.65;;
18716;SDS011;9487;50.892;6.906;2023-06-14T13:32:46;3.47;;;1.85;;
18716;SDS011;9487;50.892;6.906;2023-06-14T13:35:17;2.30;;;2.10;;
18716;SDS011;9487;50.892;6.906;2023-06-14T13:37:43;3.20;;;1.85;;
18716;SDS011;9487;50.892;6.906;2023-06-14T13:40:13;2.00;;;1.80;;
18716;SDS011;9487;50.892;6.906;2023-06-14T13:42:40;3.47;;;1.90;;
18716;SDS011;9487;50.892;6.906;2023-06-14T13:45:09;2.05;;;1.83;;
18716;SDS011;9487;50.892;6.906;2023-06-14T13:47:37;2.58;;;2.20;;
18716;SDS011;9487;50.892;6.906;2023-06-14T13:50:05;2.55;;;1.73;;
18716;SDS011;9487;50.892;6.906;2023-06-14T13:52:33;1.98;;;1.88;;
18716;SDS011;9487;50.892;6.906;2023-06-14T13:55:03;2.28;;;2.10;;
18716;SDS011;9487;50.892;6.906;2023-06-14T13:57:32;3.75;;;2.40;;
18716;SDS011;9487;50.892;6.906;2023-06-14T14:00:02;2.88;;;2.15;;
18716;SDS011;9487;50.892;6.906;2023-06-14T14:02:30;2.33;;;2.13;;
18716;SDS011;9487;50.892;6.906;2023-06-14T14:04:58;2.33;;;2.13;;
18716;SDS011;9487;50.892;6.906;2023-06-14T14:07:25;3.08;;;2.30;;
18716;SDS011;9487;50.892;6.906;2023-06-14T14:09:54;4.10;;;2.17;;
18716;SDS011;9487;50.892;6.906;2023-06-14T14:12:22;2.10;;;1.92;;
18716;SDS011;9487;50.892;6.906;2023-06-14T14:14:51;2.55;;;2.03;;
18716;SDS011;9487;50.892;6.906;2023-06-14T14:17:19;3.00;;;2.25;;
18716;SDS011;9487;50.892;6.906;2023-06-14T14:19:46;2.30;;;2.10;;
18716;SDS011;9487;50.892;6.906;2023-06-14T14:22:13;2.80;;;2.15;;
18716;SDS011;9487;50.892;6.906;2023-06-14T14:24:40;4.82;;;2.22;;
18716;SDS011;9487;50.892;6.906;2023-06-14T14:27:07;5.07;;;2.30;;
18716;SDS011;9487;50.892;6.906;2023-06-14T14:29:34;2.28;;;2.17;;
18716;SDS011;9487;50.892;6.906;2023-06-14T14:32:02;2.60;;;2.40;;
18716;SDS011;9487;50.892;6.906;2023-06-14T14:34:30;2.40;;;2.20;;
18716;SDS011;9487;50.892;6.906;2023-06-14T14:36:58;3.72;;;2.28;;
18716;SDS011;9487;50.892;6.906;2023-06-14T14:39:25;5.13;;;2.45;;
18716;SDS011;9487;50.892;6.906;2023-06-14T14:41:52;3.05;;;2.42;;
18716;SDS011;9487;50.892;6.906;2023-06-14T14:44:19;3.38;;;2.13;;
18716;SDS011;9487;50.892;6.906;2023-06-14T14:46:47;2.30;;;2.10;;
18716;SDS011;9487;50.892;6.906;2023-06-14T14:49:15;2.70;;;2.17;;
18716;SDS011;9487;50.892;6.906;2023-06-14T14:51:42;2.42;;;2.22;;
18716;SDS011;9487;50.892;6.906;2023-06-14T14:54:09;3.58;;;2.45;;
18716;SDS011;9487;50.892;6.906;2023-06-14T14:56:36;2.55;;;2.10;;
18716;SDS011;9487;50.892;6.906;2023-06-14T14:59:03;2.63;;;2.42;;
18716;SDS011;9487;50.892;6.906;2023-06-14T15:01:31;2.75;;;2.25;;
18716;SDS011;9487;50.892;6.906;2023-06-14T15:03:58;2.75;;;2.30;;
18716;SDS011;9487;50.892;6.906;2023-06-14T15:06:28;3.25;;;2.40;;
18716;SDS011;9487;50.892;6.906;2023-06-14T15:08:55;2.58;;;2.30;;